Time;durP1;ratioP1;P1;durP2;ratioP2;P2;SDS_P1;SDS_P2;PMS_P1;PMS_P2;Temp;Humidity;BMP_temperature;BMP_pressure;BME280_temperature;BME280_humidity;BME280_pressure;Samples;Min_cycle;Max_cycle;Signal;HPM_P1;HPM_P2
2022/01/05 00:00:18;;;;;;;4.28;1.38;;;;;;;17.50;50.90;100109.88;4860205;29;20480;-81
2022/01/05 00:02:44;;;;;;;3.22;1.38;;;;;;;17.50;51.06;100099.47;4877129;29;20041;-81
2022/01/05 00:05:09;;;;;;;3.55;1.27;;;;;;;17.51;50.85;100103.75;4892228;29;20064;-81
2022/01/05 00:07:35;;;;;;;3.08;1.15;;;;;;;17.48;50.84;100095.16;4873497;29;20048;-81
2022/01/05 00:10:02;;;;;;;5.40;1.40;;;;;;;17.47;50.85;100106.44;4889302;29;20060;-81
2022/01/05 00:12:27;;;;;;;2.78;1.10;;;;;;;17.48;50.67;100094.28;4875955;29;20088;-81
2022/01/05 00:14:53;;;;;;;3.00;1.27;;;;;;;17.50;50.89;100104.66;4860965;29;20065;-81
2022/01/05 00:17:18;;;;;;;4.68;1.42;;;;;;;17.48;50.93;100105.56;4876405;29;20039;-81
2022/01/05 00:19:45;;;;;;;3.53;1.30;;;;;;;17.48;50.79;100102.97;4875292;29;20065;-81
2022/01/05 00:22:11;;;;;;;4.93;1.70;;;;;;;17.47;50.84;100100.41;4861746;29;20049;-81
2022/01/05 00:24:41;;;;;;;3.60;1.40;;;;;;;17.50;50.58;100096.88;4883688;29;20136;-81
2022/01/05 00:27:07;;;;;;;3.50;1.23;;;;;;;17.48;50.72;100102.97;4895881;29;20483;-81
2022/01/05 00:29:32;;;;;;;3.47;1.20;;;;;;;17.48;50.87;100109.91;4891169;29;20064;-81
2022/01/05 00:31:58;;;;;;;3.40;1.40;;;;;;;17.47;50.64;100103.00;4891167;29;20033;-81
2022/01/05 00:34:25;;;;;;;4.15;1.40;;;;;;;17.47;50.44;100101.25;4891156;29;20041;-81
2022/01/05 00:36:51;;;;;;;2.80;1.30;;;;;;;17.48;50.72;100108.19;4875744;29;20033;-81
2022/01/05 00:39:17;;;;;;;3.58;1.50;;;;;;;17.47;50.74;100106.44;4858672;29;20061;-81
2022/01/05 00:41:42;;;;;;;3.35;1.35;;;;;;;17.46;50.73;100104.75;4872872;29;20065;-81
2022/01/05 00:44:12;;;;;;;3.13;1.38;;;;;;;17.44;50.55;100113.44;4873608;29;20401;-81
2022/01/05 00:46:38;;;;;;;3.90;1.42;;;;;;;17.44;50.80;100103.91;4875644;29;20062;-81
2022/01/05 00:49:03;;;;;;;4.15;1.50;;;;;;;17.44;50.83;100116.03;4875413;29;20041;-81
2022/01/05 00:51:29;;;;;;;5.28;1.60;;;;;;;17.44;50.78;100097.84;4875393;29;20040;-81
2022/01/05 00:53:54;;;;;;;4.47;1.33;;;;;;;17.43;50.45;100111.75;4874514;29;20116;-81
2022/01/05 00:56:21;;;;;;;4.10;1.33;;;;;;;17.42;50.65;100105.69;4874436;29;20033;-81
2022/01/05 00:58:47;;;;;;;4.82;1.45;;;;;;;17.44;50.49;100105.63;4890392;29;20041;-82
2022/01/05 01:01:12;;;;;;;4.75;1.40;;;;;;;17.44;50.39;100103.03;4874812;29;20400;-81
2022/01/05 01:03:39;;;;;;;5.82;1.65;;;;;;;17.42;50.65;100105.69;4892501;29;20029;-80
2022/01/05 01:06:08;;;;;;;3.60;1.15;;;;;;;17.43;50.68;100111.75;4868477;29;20037;-81
2022/01/05 01:08:34;;;;;;;3.95;1.42;;;;;;;17.41;50.52;100106.56;4869908;29;20045;-81
2022/01/05 01:11:00;;;;;;;4.10;1.45;;;;;;;17.41;50.45;100108.31;4854193;29;20100;-81
2022/01/05 01:13:26;;;;;;;5.10;1.50;;;;;;;17.39;50.45;100105.75;4887800;29;20033;-81
2022/01/05 01:15:53;;;;;;;2.97;1.20;;;;;;;17.42;50.52;100105.69;4872440;29;20029;-81
2022/01/05 01:18:20;;;;;;;3.35;1.17;;;;;;;17.42;50.65;100102.22;4858816;29;20117;-81
2022/01/05 01:20:49;;;;;;;3.72;1.20;;;;;;;17.40;50.49;100101.41;4875379;29;20087;-81
2022/01/05 01:23:21;;;;;;;2.20;1.02;;;;;;;17.38;50.35;100101.44;4875651;29;20037;-81
2022/01/05 01:25:51;;;;;;;2.60;1.05;;;;;;;17.40;50.44;100112.66;4892432;29;20032;-81
2022/01/05 01:28:17;;;;;;;3.72;1.20;;;;;;;17.41;50.54;100108.31;4874783;29;20033;-81
2022/01/05 01:30:45;;;;;;;3.75;1.58;;;;;;;17.42;50.54;100099.59;4891935;29;20488;-81
2022/01/05 01:33:11;;;;;;;4.00;1.33;;;;;;;17.41;50.27;100100.50;4872394;29;20067;-81
2022/01/05 01:35:37;;;;;;;3.08;1.40;;;;;;;17.40;50.50;100104.88;4889143;29;20037;-81
2022/01/05 01:38:04;;;;;;;2.85;1.20;;;;;;;17.39;50.42;100103.13;4872765;29;20049;-81
2022/01/05 01:40:31;;;;;;;4.25;1.52;;;;;;;17.41;50.51;100103.13;4873576;29;20048;-81
2022/01/05 01:42:57;;;;;;;4.35;1.60;;;;;;;17.39;50.69;100105.75;4872521;29;20044;-81
2022/01/05 01:45:30;;;;;;;4.95;1.58;;;;;;;17.38;50.44;100106.63;4876159;29;20100;-81
2022/01/05 01:47:58;;;;;;;4.10;1.25;;;;;;;17.37;50.43;100104.91;4856361;29;20055;-81
2022/01/05 01:50:27;;;;;;;4.07;1.50;;;;;;;17.39;50.35;100110.94;4896650;29;20033;-81
2022/01/05 01:52:53;;;;;;;2.78;1.25;;;;;;;17.39;50.45;100110.09;4883282;29;20074;-81
2022/01/05 01:55:21;;;;;;;4.78;1.67;;;;;;;17.37;50.37;100110.13;4876388;29;20041;-81
2022/01/05 01:57:51;;;;;;;4.35;1.27;;;;;;;17.38;50.53;100117.03;4873279;29;20036;-81
2022/01/05 02:00:18;;;;;;;2.78;1.30;;;;;;;17.37;50.39;100112.72;4874858;29;20032;-81
2022/01/05 02:02:45;;;;;;;3.78;1.48;;;;;;;17.36;50.38;100104.97;4874691;29;20044;-81
2022/01/05 02:05:14;;;;;;;4.30;1.70;;;;;;;17.37;50.48;100111.88;4884914;29;20033;-81
2022/01/05 02:07:40;;;;;;;3.15;1.38;;;;;;;17.37;50.38;100107.50;4902050;29;20045;-81
2022/01/05 02:10:10;;;;;;;4.05;1.60;;;;;;;17.35;50.31;100104.09;4886041;29;20041;-81
2022/01/05 02:12:36;;;;;;;5.00;1.40;;;;;;;17.36;50.14;100107.56;4882909;29;20044;-81
2022/01/05 02:15:03;;;;;;;3.83;1.50;;;;;;;17.35;50.10;100098.88;4877194;29;20045;-81
2022/01/05 02:17:45;;;;;;;3.63;1.50;;;;;;;17.36;50.22;100103.22;4876625;29;20033;-81
2022/01/05 02:20:31;;;;;;;5.13;1.48;;;;;;;17.36;50.10;100118.81;4863561;29;20048;-81
2022/01/05 02:22:57;;;;;;;3.47;1.20;;;;;;;17.35;50.20;100105.84;4875632;29;20495;-81
2022/01/05 02:25:23;;;;;;;5.55;1.50;;;;;;;17.34;50.24;100115.38;4894252;29;20039;-81
2022/01/05 02:28:00;;;;;;;4.28;1.70;;;;;;;17.33;50.01;100116.25;4875846;29;20037;-81
2022/01/05 02:30:32;;;;;;;4.18;1.50;;;;;;;17.32;50.21;100117.16;4872391;29;20484;-81
2022/01/05 02:33:05;;;;;;;3.42;1.20;;;;;;;17.32;50.18;100117.16;4890557;29;20029;-81
2022/01/05 02:35:32;;;;;;;2.80;1.20;;;;;;;17.34;50.10;100114.53;4891091;29;20033;-82
2022/01/05 02:37:59;;;;;;;3.35;1.40;;;;;;;17.31;50.28;100112.88;4873602;29;20041;-81
2022/01/05 02:40:24;;;;;;;3.17;1.45;;;;;;;17.32;50.17;100113.72;4888898;29;20029;-81
2022/01/05 02:42:53;;;;;;;4.03;1.30;;;;;;;17.32;50.23;100122.34;4872071;29;20047;-81
2022/01/05 02:45:19;;;;;;;4.82;1.48;;;;;;;17.31;50.07;100109.38;4871722;29;20047;-81
2022/01/05 02:47:44;;;;;;;4.60;1.48;;;;;;;17.31;50.17;100107.66;4872954;29;20065;-81
2022/01/05 02:50:12;;;;;;;3.83;1.55;;;;;;;17.32;49.98;100111.09;4872386;29;20033;-81
2022/01/05 02:52:41;;;;;;;3.25;1.40;;;;;;;17.30;49.98;100110.28;4889756;29;20025;-81
2022/01/05 02:55:08;;;;;;;3.35;1.52;;;;;;;17.30;49.96;100116.34;4898313;29;20029;-81
2022/01/05 02:57:35;;;;;;;3.45;1.23;;;;;;;17.30;50.05;100115.47;4901970;29;20104;-81
2022/01/05 03:00:03;;;;;;;4.05;1.55;;;;;;;17.30;50.26;100116.34;4880917;29;20029;-81
2022/01/05 03:02:28;;;;;;;3.97;1.42;;;;;;;17.30;50.08;100111.13;4861980;29;20037;-81
2022/01/05 03:04:54;;;;;;;3.53;1.35;;;;;;;17.30;50.06;100118.94;4878875;29;20044;-81
2022/01/05 03:07:20;;;;;;;3.47;1.30;;;;;;;17.30;49.92;100123.28;4878727;29;20041;-81
2022/01/05 03:09:45;;;;;;;3.47;1.30;;;;;;;17.30;50.00;100123.28;4861901;29;20048;-81
2022/01/05 03:12:12;;;;;;;4.53;1.50;;;;;;;17.29;50.07;100127.63;4874050;29;20037;-80
2022/01/05 03:14:43;;;;;;;3.47;1.60;;;;;;;17.30;50.07;100125.88;4877019;29;20089;-81
2022/01/05 03:17:12;;;;;;;3.88;1.50;;;;;;;17.28;50.02;100125.91;4873858;29;20104;-82
2022/01/05 03:19:37;;;;;;;3.70;1.63;;;;;;;17.29;49.97;100127.63;4890106;29;20084;-81
2022/01/05 03:22:04;;;;;;;4.45;1.40;;;;;;;17.29;49.99;100125.03;4858188;29;20045;-81
2022/01/05 03:24:31;;;;;;;2.80;1.30;;;;;;;17.27;50.02;100130.25;4843165;29;20037;-81
2022/01/05 03:26:58;;;;;;;6.03;1.75;;;;;;;17.29;49.91;100138.03;4873021;29;20040;-81
2022/01/05 03:29:24;;;;;;;4.32;1.40;;;;;;;17.28;49.84;100136.31;4873132;29;20057;-81
2022/01/05 03:31:50;;;;;;;4.68;1.50;;;;;;;17.27;49.99;100139.81;4888686;29;20127;-81
2022/01/05 03:34:19;;;;;;;2.38;1.02;;;;;;;17.25;50.15;100126.81;4890108;29;20092;-81
2022/01/05 03:36:46;;;;;;;5.18;1.58;;;;;;;17.28;49.96;100128.50;4874815;29;20037;-81
2022/01/05 03:39:11;;;;;;;3.97;1.63;;;;;;;17.27;49.99;100134.59;4855806;29;20413;-81
2022/01/05 03:41:39;;;;;;;2.80;1.20;;;;;;;17.26;49.97;100133.72;4872354;29;20046;-81
2022/01/05 03:44:05;;;;;;;3.97;1.50;;;;;;;17.27;49.98;100132.84;4872545;29;20033;-81
2022/01/05 03:46:31;;;;;;;3.85;1.27;;;;;;;17.26;49.97;100125.94;4856378;29;20074;-81
2022/01/05 03:48:57;;;;;;;4.53;1.63;;;;;;;17.25;49.96;100121.63;4874854;29;20033;-80
2022/01/05 03:51:22;;;;;;;3.38;1.42;;;;;;;17.25;50.01;100119.03;4874046;29;20069;-81
2022/01/05 03:53:49;;;;;;;3.70;1.40;;;;;;;17.25;50.18;100124.22;4870591;29;20041;-81
2022/01/05 03:56:16;;;;;;;3.92;1.30;;;;;;;17.26;50.23;100131.13;4871102;29;20061;-81
2022/01/05 03:58:42;;;;;;;2.83;1.35;;;;;;;17.25;50.23;100126.81;4854834;29;20074;-81
2022/01/05 04:01:09;;;;;;;3.40;1.40;;;;;;;17.26;50.20;100136.31;4871579;29;20499;-82
2022/01/05 04:03:36;;;;;;;4.18;1.60;;;;;;;17.27;50.24;100132.00;4856510;29;20042;-81
2022/01/05 04:06:01;;;;;;;4.72;1.50;;;;;;;17.25;50.29;100124.22;4872110;29;20061;-81
2022/01/05 04:08:27;;;;;;;3.65;1.50;;;;;;;17.26;50.19;100138.06;4870578;29;20053;-81
2022/01/05 04:10:53;;;;;;;4.60;1.58;;;;;;;17.26;50.38;100141.53;4868957;29;20116;-81
2022/01/05 04:13:19;;;;;;;2.97;1.20;;;;;;;17.26;50.21;100138.94;4869549;29;20042;-81
2022/01/05 04:15:45;;;;;;;4.00;1.50;;;;;;;17.27;50.24;100140.66;4869703;29;20128;-81
2022/01/05 04:18:11;;;;;;;3.97;1.63;;;;;;;17.27;50.23;100153.66;4856174;29;20072;-81
2022/01/05 04:20:36;;;;;;;4.22;1.80;;;;;;;17.27;50.38;100150.22;4873689;29;20057;-81
2022/01/05 04:23:02;;;;;;;3.45;1.55;;;;;;;17.28;50.29;100151.91;4880941;29;20045;-81
2022/01/05 04:25:28;;;;;;;3.38;1.50;;;;;;;17.27;50.24;100168.41;4878672;29;20050;-81
2022/01/05 04:27:55;;;;;;;4.05;1.40;;;;;;;17.27;50.12;100173.63;4859779;29;20041;-81
2022/01/05 04:30:20;;;;;;;3.42;1.40;;;;;;;17.26;50.45;100151.94;4874315;29;20041;-81
2022/01/05 04:32:46;;;;;;;4.30;1.45;;;;;;;17.25;50.39;100159.78;4872599;29;20037;-81
2022/01/05 04:35:14;;;;;;;3.65;1.65;;;;;;;17.27;49.92;100163.22;4868112;29;20041;-81
2022/01/05 04:37:41;;;;;;;3.47;1.55;;;;;;;17.22;50.29;100160.69;4868908;29;20530;-81
2022/01/05 04:40:10;;;;;;;3.92;1.42;;;;;;;17.25;50.32;100167.59;4870015;29;20061;-81
2022/01/05 04:43:04;;;;;;;4.03;1.40;;;;;;;17.24;50.27;100166.69;4875224;29;20041;-82
2022/01/05 04:45:35;;;;;;;;;;;;;;;17.24;50.27;100163.25;4861714;29;20058;-82
2022/01/05 04:48:01;;;;;;;4.45;1.40;;;;;;;17.24;50.22;100169.31;4876145;29;19962;-82
2022/01/05 04:50:33;;;;;;;5.13;1.88;;;;;;;17.22;50.16;100160.69;4860785;29;20037;-82
2022/01/05 04:53:46;;;;;;;4.55;1.50;;;;;;;17.23;50.26;100165.00;4873740;29;20042;-81
2022/01/05 04:56:21;;;;;;;3.47;1.30;;;;;;;17.24;50.41;100160.66;4815212;29;20125;-81
2022/01/05 05:01:57;;;;;;;4.18;1.40;;;;;;;17.22;50.26;100173.69;4756866;30;20051;-82
2022/01/05 05:04:23;;;;;;;5.20;1.58;;;;;;;17.21;50.45;100177.16;4726229;30;20049;-82
2022/01/05 05:06:50;;;;;;;3.03;1.30;;;;;;;17.22;50.27;100171.09;4735133;30;20059;-82
2022/01/05 05:09:17;;;;;;;2.97;1.35;;;;;;;17.21;50.21;100164.16;4731660;30;20063;-81
2022/01/05 05:11:45;;;;;;;3.45;1.40;;;;;;;17.21;50.36;100164.16;4731809;30;20046;-81
2022/01/05 05:14:11;;;;;;;3.63;1.35;;;;;;;17.20;50.21;100162.47;4745832;30;20045;-81
2022/01/05 05:16:37;;;;;;;4.85;1.73;;;;;;;17.20;50.22;100167.66;4741621;30;20048;-81
2022/01/05 05:19:02;;;;;;;3.70;1.40;;;;;;;17.21;50.48;100174.56;4711698;30;20588;-80
2022/01/05 05:21:31;;;;;;;3.65;1.50;;;;;;;17.20;50.38;100169.38;4739548;30;20408;-81
2022/01/05 05:23:56;;;;;;;5.30;1.58;;;;;;;17.21;50.26;100174.56;4725571;30;20083;-81
2022/01/05 05:26:22;;;;;;;4.68;1.40;;;;;;;17.21;50.40;100176.31;4730900;30;20076;-81
2022/01/05 05:28:47;;;;;;;3.60;1.35;;;;;;;17.21;50.57;100171.97;4735911;30;20068;-81
2022/01/05 05:31:13;;;;;;;3.00;1.30;;;;;;;17.22;50.59;100180.63;4750414;30;20075;-81
2022/01/05 05:33:38;;;;;;;3.70;1.45;;;;;;;17.23;50.70;100175.41;4785746;29;20065;-81
2022/01/05 05:36:05;;;;;;;3.72;1.60;;;;;;;17.21;50.42;100173.72;4820158;29;20043;-81
2022/01/05 05:38:31;;;;;;;3.75;1.50;;;;;;;17.22;50.34;100180.63;4815988;29;20566;-81
2022/01/05 05:40:57;;;;;;;3.22;1.40;;;;;;;17.21;50.48;100169.38;4815765;29;20058;-80
2022/01/05 05:43:22;;;;;;;3.42;1.25;;;;;;;17.22;50.40;100178.91;4800295;29;20106;-80
2022/01/05 05:45:48;;;;;;;4.80;1.65;;;;;;;17.23;50.55;100170.19;4785358;29;20043;-80
2022/01/05 05:48:13;;;;;;;3.10;1.40;;;;;;;17.22;50.53;100171.09;4785267;29;20114;-80
2022/01/05 05:50:39;;;;;;;5.32;1.30;;;;;;;17.24;50.44;100171.06;4801344;29;20073;-80
2022/01/05 05:53:06;;;;;;;3.70;1.40;;;;;;;17.24;50.26;100168.44;4832751;29;20037;-80
2022/01/05 05:55:33;;;;;;;3.50;1.40;;;;;;;17.23;50.57;100178.00;4873193;29;20129;-80
2022/01/05 05:57:59;;;;;;;4.10;1.50;;;;;;;17.25;50.49;100180.59;4855519;29;20449;-80
2022/01/05 06:00:24;;;;;;;3.08;1.23;;;;;;;17.25;50.47;100185.78;4858272;29;20086;-80
2022/01/05 06:02:52;;;;;;;4.03;1.60;;;;;;;17.22;50.61;100184.09;4857674;29;20108;-80
2022/01/05 06:05:18;;;;;;;3.50;1.35;;;;;;;17.21;50.34;100171.97;4856843;29;20052;-80
2022/01/05 06:08:05;;;;;;;3.22;1.60;;;;;;;17.24;50.43;100168.44;4873446;29;20061;-82
2022/01/05 06:10:39;;;;;;;3.20;1.17;;;;;;;17.23;50.73;100161.56;4846626;29;20097;-81
2022/01/05 06:13:14;;;;;;;3.83;1.60;;;;;;;17.23;50.70;100165.00;4876204;29;20033;-80
2022/01/05 06:15:59;;;;;;;8.48;3.08;;;;;;;17.25;50.67;100167.59;4862909;29;20113;-81
2022/01/05 06:36:59;;;;;;;10.20;3.67;;;;;;;17.29;50.79;100197.84;4906241;29;20172;-79
2022/01/05 06:40:04;;;;;;;8.48;3.17;;;;;;;17.28;50.90;100191.75;4904847;29;20033;-84
2022/01/05 06:42:59;;;;;;;8.75;3.35;;;;;;;17.29;50.73;100197.84;4905850;29;20048;-84
2022/01/05 06:49:09;;;;;;;9.20;3.25;;;;;;;17.29;50.93;100195.25;4906909;29;20053;-83
2022/01/05 08:21:27;;;;;;;5.95;2.65;;;;;;;17.31;51.39;100307.91;4885847;29;20052;-80
2022/01/05 10:27:18;;;;;;;7.57;2.35;;;;;;;17.87;50.93;100480.44;5695529;23;20100;-78
2022/01/05 10:30:11;;;;;;;5.10;1.98;;;;;;;17.87;50.70;100487.38;5170741;23;20032;-79
2022/01/05 10:32:37;;;;;;;8.32;2.22;;;;;;;17.84;50.83;100497.88;4832263;29;20527;-79
2022/01/05 10:35:11;;;;;;;5.72;2.00;;;;;;;17.84;50.93;100510.88;4834266;29;20046;-79
2022/01/05 10:37:40;;;;;;;6.70;2.25;;;;;;;17.87;51.03;100519.47;4832077;29;20038;-79
2022/01/05 10:40:13;;;;;;;5.07;2.08;;;;;;;17.94;51.08;100522.84;4852771;29;20015;-79
2022/01/05 10:42:39;;;;;;;8.15;1.92;;;;;;;17.96;50.92;100530.63;4831128;29;20155;-79
2022/01/05 10:45:06;;;;;;;5.85;1.95;;;;;;;17.93;50.84;100534.16;4832230;29;20037;-78
2022/01/05 10:47:33;;;;;;;6.80;2.15;;;;;;;17.96;51.11;100528.88;4830568;29;20041;-79
2022/01/05 10:49:59;;;;;;;7.57;1.95;;;;;;;18.01;50.75;100547.06;4829972;29;20041;-79
2022/01/05 10:52:30;;;;;;;4.80;1.92;;;;;;;18.00;50.93;100527.97;4846966;29;20046;-79
2022/01/05 10:55:16;;;;;;;8.10;2.15;;;;;;;18.04;50.77;100537.44;4830519;29;20442;-79
2022/01/05 10:58:14;;;;;;;8.48;2.25;;;;;;;18.09;50.55;100546.06;4831301;29;20038;-79
2022/01/05 11:00:44;;;;;;;9.38;2.30;;;;;;;18.02;50.63;100560.03;4830655;29;20045;-79
2022/01/05 11:03:30;;;;;;;7.13;2.28;;;;;;;17.99;50.74;100560.09;4848298;29;20486;-79
2022/01/05 11:06:08;;;;;;;5.07;1.95;;;;;;;17.99;50.69;100557.50;4846721;29;20065;-79
2022/01/05 11:08:59;;;;;;;9.48;2.20;;;;;;;17.98;50.71;100563.56;4831421;29;20041;-78
2022/01/05 11:11:30;;;;;;;7.72;2.40;;;;;;;17.95;50.66;100566.22;4845968;29;20030;-79
2022/01/05 11:13:55;;;;;;;5.60;2.22;;;;;;;17.95;50.56;100566.22;4831645;29;20043;-80
2022/01/05 11:16:28;;;;;;;7.43;2.90;;;;;;;17.92;50.71;100570.63;4830647;29;20086;-81
2022/01/05 11:19:11;;;;;;;7.13;2.33;;;;;;;17.89;50.46;100564.56;4848269;29;20033;-79
2022/01/05 11:21:38;;;;;;;8.18;2.88;;;;;;;17.88;50.66;100564.63;4848344;29;20034;-78
2022/01/05 11:24:23;;;;;;;10.48;2.50;;;;;;;17.88;50.68;100562.00;4823577;29;20057;-79
2022/01/05 11:26:49;;;;;;;7.53;2.50;;;;;;;17.90;50.55;100575.88;4851385;29;20061;-80
2022/01/05 11:29:15;;;;;;;8.40;2.42;;;;;;;17.84;50.81;100566.41;4834656;29;20465;-81
2022/01/05 11:31:41;;;;;;;10.50;2.42;;;;;;;17.83;50.74;100585.50;4817425;29;20119;-81
2022/01/05 11:34:07;;;;;;;8.48;2.80;;;;;;;17.86;50.83;100582.00;4828446;29;20034;-79
2022/01/05 11:36:36;;;;;;;12.15;3.05;;;;;;;17.85;50.42;100580.25;4815761;29;20059;-81
2022/01/05 11:39:02;;;;;;;6.93;2.50;;;;;;;17.85;50.56;100583.72;4825587;29;20405;-79
2022/01/05 11:41:29;;;;;;;10.98;2.30;;;;;;;17.92;50.83;100594.94;4822161;29;20039;-78
2022/01/05 11:43:54;;;;;;;7.00;2.58;;;;;;;17.90;50.27;100594.09;4783149;29;20107;-79
2022/01/05 11:46:23;;;;;;;9.55;2.92;;;;;;;17.85;50.53;100595.88;4783615;29;20042;-79
2022/01/05 11:49:02;;;;;;;8.95;2.50;;;;;;;17.85;50.68;100609.75;4831764;29;20077;-81
2022/01/05 11:51:41;;;;;;;7.45;2.70;;;;;;;17.90;50.45;100599.28;4816348;29;20045;-81
2022/01/05 11:54:32;;;;;;;9.30;2.58;;;;;;;17.95;50.24;100600.06;4831737;29;20109;-80
2022/01/05 11:57:19;;;;;;;5.43;2.38;;;;;;;17.98;50.48;100604.38;4830441;29;20038;-79
2022/01/05 11:59:45;;;;;;;10.48;2.55;;;;;;;17.95;50.53;100615.69;4814467;29;20048;-80
2022/01/05 12:02:16;;;;;;;7.38;2.45;;;;;;;17.95;50.77;100605.28;4827467;29;20125;-80
2022/01/05 12:04:56;;;;;;;6.50;2.17;;;;;;;17.97;50.44;100626.09;4828106;29;20038;-80
2022/01/05 12:07:43;;;;;;;7.13;2.42;;;;;;;17.99;50.61;100629.53;4812017;29;20573;-80
2022/01/05 12:13:03;;;;;;;5.78;2.40;;;;;;;17.97;50.49;100637.38;4836843;29;20026;-80
2022/01/05 12:15:57;;;;;;;7.70;2.42;;;;;;;17.99;50.40;100630.41;4816033;29;20034;-80
2022/01/05 12:18:27;;;;;;;7.68;2.20;;;;;;;18.01;50.61;100638.19;4829706;29;20486;-80
2022/01/05 12:20:54;;;;;;;7.35;2.30;;;;;;;18.00;50.60;100628.66;4829631;29;20035;-80
2022/01/05 12:23:25;;;;;;;5.82;2.33;;;;;;;18.01;50.53;100639.03;4813561;29;20034;-79
2022/01/05 12:26:03;;;;;;;7.80;2.45;;;;;;;18.03;50.43;100631.19;4828187;29;20045;-79
2022/01/05 12:28:33;;;;;;;5.45;2.05;;;;;;;18.06;50.77;100631.16;4813262;29;20630;-79
2022/01/05 12:30:59;;;;;;;6.53;2.30;;;;;;;18.07;50.46;100657.19;4836414;29;20394;-79
2022/01/05 12:33:25;;;;;;;5.78;2.35;;;;;;;18.08;50.33;100651.09;4831565;29;20054;-80
2022/01/05 12:36:01;;;;;;;5.75;2.30;;;;;;;18.07;50.34;100665.00;4832506;29;20041;-79
2022/01/05 12:38:46;;;;;;;7.63;2.42;;;;;;;18.02;50.40;100653.78;4815170;29;20044;-79
2022/01/05 12:41:31;;;;;;;5.70;1.90;;;;;;;18.03;50.55;100652.91;4830605;29;20030;-80
2022/01/05 12:44:00;;;;;;;5.60;2.28;;;;;;;18.04;50.63;100659.81;4845411;29;20523;-79
2022/01/05 12:46:36;;;;;;;6.97;2.47;;;;;;;17.99;50.39;100661.63;4845770;29;20409;-79
2022/01/05 12:49:04;;;;;;;5.68;2.08;;;;;;;17.96;50.57;100666.88;4830665;29;20133;-79
2022/01/05 12:51:39;;;;;;;6.80;2.20;;;;;;;17.94;50.43;100673.00;4846189;29;20378;-79
2022/01/05 12:54:19;;;;;;;5.78;2.15;;;;;;;17.91;50.37;100678.25;4844900;29;20113;-79
2022/01/05 12:56:51;;;;;;;5.00;2.30;;;;;;;17.92;50.58;100675.63;4844888;29;20041;-79
2022/01/05 12:59:21;;;;;;;6.40;2.20;;;;;;;17.96;50.56;100673.81;4828892;29;20042;-79
2022/01/05 13:01:52;;;;;;;6.40;2.35;;;;;;;17.97;50.48;100685.97;4845447;29;20045;-79
2022/01/05 13:04:18;;;;;;;7.15;2.35;;;;;;;18.00;50.55;100693.75;4832227;29;20560;-80
2022/01/05 13:06:45;;;;;;;5.75;2.10;;;;;;;17.97;50.63;100693.78;4835075;29;20041;-80
2022/01/05 13:09:13;;;;;;;6.22;2.28;;;;;;;17.96;50.64;100689.44;4837488;29;20046;-80
2022/01/05 13:11:50;;;;;;;4.07;1.83;;;;;;;17.98;50.47;100698.09;4851219;29;20102;-79
2022/01/05 13:14:25;;;;;;;4.72;1.92;;;;;;;17.99;50.77;100708.50;4851534;29;20038;-79
2022/01/05 13:16:53;;;;;;;5.10;2.15;;;;;;;17.99;50.77;100707.66;4849630;29;20033;-79
2022/01/05 13:19:44;;;;;;;6.95;2.53;;;;;;;18.01;50.68;100708.50;4849904;29;20037;-79
2022/01/05 13:22:18;;;;;;;6.57;2.30;;;;;;;18.02;50.58;100708.44;4841391;29;20509;-79
2022/01/05 13:25:07;;;;;;;6.30;2.00;;;;;;;17.96;50.56;100721.53;4848322;29;20034;-80
2022/01/05 13:27:38;;;;;;;9.65;2.58;;;;;;;17.91;50.59;100722.50;4848346;29;20034;-79
2022/01/05 13:30:19;;;;;;;5.82;2.30;;;;;;;17.87;50.68;100727.72;4829630;29;20045;-80
2022/01/05 13:32:50;;;;;;;7.20;2.45;;;;;;;17.85;50.48;100724.28;4829245;29;20602;-80
2022/01/05 13:35:25;;;;;;;6.40;1.90;;;;;;;17.85;50.77;100731.25;4825922;29;20481;-79
2022/01/05 13:37:53;;;;;;;5.53;2.10;;;;;;;17.84;50.79;100735.59;4824961;29;20385;-79
2022/01/05 13:40:23;;;;;;;5.47;2.08;;;;;;;17.85;50.49;100734.69;4826300;29;20035;-80
2022/01/05 13:42:52;;;;;;;6.10;2.15;;;;;;;17.86;50.84;100736.44;4828373;29;20477;-78
2022/01/05 13:45:26;;;;;;;5.38;2.10;;;;;;;17.86;50.55;100752.06;4828751;29;20121;-79
2022/01/05 13:48:01;;;;;;;5.43;2.22;;;;;;;17.86;50.81;100753.81;4813477;29;20038;-79
2022/01/05 13:50:41;;;;;;;8.40;2.53;;;;;;;17.87;50.73;100758.13;4813537;29;20030;-79
2022/01/05 13:53:18;;;;;;;6.82;2.38;;;;;;;17.89;50.69;100761.56;4830465;29;20045;-79
2022/01/05 13:55:47;;;;;;;6.35;2.40;;;;;;;17.88;50.84;100762.47;4964876;24;20050;-78
2022/01/05 13:58:18;;;;;;;7.70;2.08;;;;;;;17.91;50.98;100785.84;4885795;29;20033;-79
2022/01/05 14:00:47;;;;;;;5.30;2.17;;;;;;;17.93;50.81;100778.88;4883809;29;20457;-78
2022/01/05 14:03:46;;;;;;;8.55;2.20;;;;;;;17.94;50.63;100785.78;4868235;29;20044;-78
2022/01/05 14:06:21;;;;;;;6.07;2.22;;;;;;;17.94;50.83;100785.78;4851316;29;20101;-78
2022/01/05 14:08:52;;;;;;;5.78;2.47;;;;;;;17.94;50.93;100798.81;4867762;29;20045;-79
2022/01/05 14:11:18;;;;;;;5.97;2.05;;;;;;;17.97;50.86;100795.34;4868076;29;20043;-79
2022/01/05 14:13:47;;;;;;;7.93;1.85;;;;;;;17.97;51.04;100805.75;4883712;29;20029;-79
2022/01/05 14:16:32;;;;;;;6.18;1.92;;;;;;;17.97;50.78;100801.41;4867450;29;20041;-79
2022/01/05 14:19:05;;;;;;;5.65;2.10;;;;;;;17.98;51.01;100808.31;4880261;29;20479;-79
2022/01/05 14:21:32;;;;;;;5.07;2.10;;;;;;;18.02;51.19;100807.41;4881952;29;20033;-78
2022/01/05 14:23:57;;;;;;;5.47;2.10;;;;;;;18.02;51.03;100806.53;4836153;29;20033;-79
2022/01/05 14:26:25;;;;;;;3.85;2.05;;;;;;;18.02;51.06;100804.78;4851912;29;20104;-78
2022/01/05 14:28:50;;;;;;;3.65;1.73;;;;;;;18.00;50.81;100813.50;4882656;29;20052;-78
2022/01/05 14:31:17;;;;;;;4.93;2.00;;;;;;;17.98;50.91;100823.94;4867355;29;20041;-78
2022/01/05 14:33:48;;;;;;;4.57;1.60;;;;;;;17.99;51.10;100817.00;4852251;29;20037;-78
2022/01/05 14:36:18;;;;;;;3.83;1.92;;;;;;;17.99;51.47;100822.22;4883266;29;20049;-78
2022/01/05 14:39:02;;;;;;;4.60;1.75;;;;;;;17.99;51.32;100833.50;4883065;29;20033;-78
2022/01/05 14:41:31;;;;;;;4.65;1.90;;;;;;;18.00;51.06;100842.16;4887219;29;20041;-79
2022/01/05 14:44:08;;;;;;;5.07;2.08;;;;;;;18.00;51.08;100843.00;4888617;29;20029;-79
2022/01/05 14:46:35;;;;;;;3.90;1.85;;;;;;;18.00;51.26;100847.34;4888202;29;20044;-78
2022/01/05 14:49:01;;;;;;;4.20;1.80;;;;;;;18.00;51.28;100852.56;4865281;29;20040;-78
2022/01/05 14:51:27;;;;;;;4.45;2.10;;;;;;;17.99;51.41;100853.47;4865167;29;20041;-77
2022/01/05 14:53:52;;;;;;;7.95;1.77;;;;;;;17.97;51.41;100865.63;4864668;29;20033;-78
2022/01/05 14:56:17;;;;;;;4.28;1.70;;;;;;;17.96;51.32;100869.94;4867126;29;20101;-78
2022/01/05 14:58:43;;;;;;;6.50;1.70;;;;;;;17.95;51.12;100872.59;4854236;29;20513;-78
2022/01/05 15:01:08;;;;;;;3.85;1.65;;;;;;;17.95;51.56;100880.41;4852443;29;20041;-78
2022/01/05 15:03:34;;;;;;;4.95;1.92;;;;;;;17.93;51.35;100871.75;4866962;29;20132;-78
2022/01/05 15:06:00;;;;;;;4.88;1.83;;;;;;;17.92;51.38;100873.50;4853133;29;20447;-78
2022/01/05 15:08:25;;;;;;;5.03;1.98;;;;;;;17.92;51.47;100880.41;4854356;29;20048;-78
2022/01/05 15:10:51;;;;;;;6.32;1.95;;;;;;;17.89;51.55;100884.78;4870456;29;20049;-78
2022/01/05 15:13:16;;;;;;;4.40;1.98;;;;;;;17.89;51.54;100883.91;4854346;29;20493;-78
2022/01/05 15:15:42;;;;;;;3.92;1.70;;;;;;;17.87;51.39;100889.13;4855740;29;20535;-79
2022/01/05 15:18:07;;;;;;;8.68;2.15;;;;;;;17.87;51.47;100893.47;4870405;29;20400;-79
2022/01/05 15:20:34;;;;;;;5.75;2.00;;;;;;;17.87;51.70;100896.09;4870264;29;20484;-78
2022/01/05 15:22:59;;;;;;;3.72;1.70;;;;;;;17.85;51.55;100898.69;4838902;29;20085;-79
2022/01/05 15:25:25;;;;;;;3.97;1.73;;;;;;;17.84;51.65;100904.78;4854399;29;20045;-78
2022/01/05 15:27:52;;;;;;;4.40;1.90;;;;;;;17.84;51.74;100917.81;4869596;29;20037;-79
2022/01/05 15:30:18;;;;;;;5.82;1.80;;;;;;;17.82;51.67;100906.56;4886545;29;20041;-78
2022/01/05 15:32:44;;;;;;;4.20;1.63;;;;;;;17.81;51.74;100917.81;4869177;29;20032;-78
2022/01/05 15:35:09;;;;;;;4.97;1.70;;;;;;;17.80;51.79;100918.69;4854580;29;20128;-78
2022/01/05 15:37:34;;;;;;;3.53;1.63;;;;;;;17.80;51.63;100926.50;4871518;29;20041;-78